sensor_id;sensor_type;location;lat;lon;timestamp;temperature;humidity
8527;DHT22;4301;48.362;8.478;2023-02-02T00:01:16;2.00;99.90
8527;DHT22;4301;48.362;8.478;2023-02-02T00:03:45;2.00;99.90
8527;DHT22;4301;48.362;8.478;2023-02-02T00:06:13;2.00;99.90
8527;DHT22;4301;48.362;8.478;2023-02-02T00:08:41;2.00;99.90
8527;DHT22;4301;48.362;8.478;2023-02-02T00:11:08;2.00;99.90
8527;DHT22;4301;48.362;8.478;2023-02-02T00:13:35;2.00;99.90
8527;DHT22;4301;48.362;8.478;2023-02-02T00:16:37;2.10;99.90
8527;DHT22;4301;48.362;8.478;2023-02-02T00:19:07;2.10;99.90
8527;DHT22;4301;48.362;8.478;2023-02-02T00:21:35;2.10;99.90
8527;DHT22;4301;48.362;8.478;2023-02-02T00:24:03;2.10;99.90
8527;DHT22;4301;48.362;8.478;2023-02-02T00:26:30;2.10;99.90
8527;DHT22;4301;48.362;8.478;2023-02-02T00:28:57;2.10;99.90
8527;DHT22;4301;48.362;8.478;2023-02-02T00:31:24;2.10;99.90
8527;DHT22;4301;48.362;8.478;2023-02-02T00:33:51;2.10;99.90
8527;DHT22;4301;48.362;8.478;2023-02-02T00:36:20;2.00;99.90
8527;DHT22;4301;48.362;8.478;2023-02-02T00:38:48;2.00;99.90
8527;DHT22;4301;48.362;8.478;2023-02-02T00:41:15;2.00;99.90
8527;DHT22;4301;48.362;8.478;2023-02-02T00:43:43;1.90;99.90
8527;DHT22;4301;48.362;8.478;2023-02-02T00:46:13;2.00;99.90
8527;DHT22;4301;48.362;8.478;2023-02-02T00:48:41;1.90;99.90
8527;DHT22;4301;48.362;8.478;2023-02-02T00:51:08;2.00;99.90
8527;DHT22;4301;48.362;8.478;2023-02-02T00:53:37;2.00;99.90
8527;DHT22;4301;48.362;8.478;2023-02-02T00:56:04;1.90;99.90
8527;DHT22;4301;48.362;8.478;2023-02-02T00:58:31;1.90;99.90
8527;DHT22;4301;48.362;8.478;2023-02-02T01:00:58;1.90;99.90
8527;DHT22;4301;48.362;8.478;2023-02-02T01:03:25;1.90;99.90
8527;DHT22;4301;48.362;8.478;2023-02-02T01:05:52;1.90;99.90
8527;DHT22;4301;48.362;8.478;2023-02-02T01:08:19;1.90;99.90
8527;DHT22;4301;48.362;8.478;2023-02-02T01:10:47;2.00;99.90
8527;DHT22;4301;48.362;8.478;2023-02-02T01:13:14;1.90;99.90
8527;DHT22;4301;48.362;8.478;2023-02-02T01:15:41;1.90;99.90
8527;DHT22;4301;48.362;8.478;2023-02-02T01:18:08;1.90;99.90
8527;DHT22;4301;48.362;8.478;2023-02-02T01:20:35;1.90;99.90
8527;DHT22;4301;48.362;8.478;2023-02-02T01:23:02;1.90;99.90
8527;DHT22;4301;48.362;8.478;2023-02-02T01:25:29;1.90;99.90
8527;DHT22;4301;48.362;8.478;2023-02-02T01:27:58;1.90;99.90
8527;DHT22;4301;48.362;8.478;2023-02-02T01:30:25;1.90;99.90
8527;DHT22;4301;48.362;8.478;2023-02-02T01:32:52;1.90;99.90
8527;DHT22;4301;48.362;8.478;2023-02-02T01:35:19;1.90;99.90
8527;DHT22;4301;48.362;8.478;2023-02-02T01:37:46;1.90;99.90
8527;DHT22;4301;48.362;8.478;2023-02-02T01:40:13;1.90;99.90
8527;DHT22;4301;48.362;8.478;2023-02-02T01:42:40;1.90;99.90
8527;DHT22;4301;48.362;8.478;2023-02-02T01:45:20;1.90;99.90
8527;DHT22;4301;48.362;8.478;2023-02-02T01:47:53;1.90;99.90
8527;DHT22;4301;48.362;8.478;2023-02-02T01:50:23;1.90;99.90
8527;DHT22;4301;48.362;8.478;2023-02-02T01:52:53;1.90;99.90
8527;DHT22;4301;48.362;8.478;2023-02-02T01:55:22;1.90;99.90
8527;DHT22;4301;48.362;8.478;2023-02-02T01:57:54;1.90;99.90
8527;DHT22;4301;48.362;8.478;2023-02-02T02:00:24;1.80;99.90
8527;DHT22;4301;48.362;8.478;2023-02-02T02:02:56;1.90;99.90
8527;DHT22;4301;48.362;8.478;2023-02-02T02:05:27;1.90;99.90
8527;DHT22;4301;48.362;8.478;2023-02-02T02:08:18;1.90;99.90
8527;DHT22;4301;48.362;8.478;2023-02-02T02:10:46;1.90;99.90
8527;DHT22;4301;48.362;8.478;2023-02-02T02:13:13;2.00;99.90
8527;DHT22;4301;48.362;8.478;2023-02-02T02:15:46;1.90;99.90
8527;DHT22;4301;48.362;8.478;2023-02-02T02:18:41;1.90;99.90
8527;DHT22;4301;48.362;8.478;2023-02-02T02:21:30;1.90;99.90
8527;DHT22;4301;48.362;8.478;2023-02-02T02:24:37;2.00;99.90
8527;DHT22;4301;48.362;8.478;2023-02-02T02:28:02;1.90;99.90
8527;DHT22;4301;48.362;8.478;2023-02-02T02:33:41;1.90;99.90
8527;DHT22;4301;48.362;8.478;2023-02-02T02:36:20;2.00;99.90
8527;DHT22;4301;48.362;8.478;2023-02-02T02:38:51;1.90;99.90
8527;DHT22;4301;48.362;8.478;2023-02-02T02:41:27;1.90;99.90
8527;DHT22;4301;48.362;8.478;2023-02-02T02:43:59;2.00;99.90
8527;DHT22;4301;48.362;8.478;2023-02-02T02:46:27;2.00;99.90
8527;DHT22;4301;48.362;8.478;2023-02-02T02:48:57;1.90;99.90
8527;DHT22;4301;48.362;8.478;2023-02-02T02:51:43;2.00;99.90
8527;DHT22;4301;48.362;8.478;2023-02-02T02:54:12;2.00;99.90
8527;DHT22;4301;48.362;8.478;2023-02-02T02:56:51;1.90;99.90
8527;DHT22;4301;48.362;8.478;2023-02-02T02:59:32;1.90;99.90
8527;DHT22;4301;48.362;8.478;2023-02-02T03:02:08;1.90;99.90
8527;DHT22;4301;48.362;8.478;2023-02-02T03:04:47;1.90;99.90
8527;DHT22;4301;48.362;8.478;2023-02-02T03:07:21;1.90;99.90
8527;DHT22;4301;48.362;8.478;2023-02-02T03:09:51;1.90;99.90
8527;DHT22;4301;48.362;8.478;2023-02-02T03:12:18;1.90;99.90
8527;DHT22;4301;48.362;8.478;2023-02-02T03:14:45;1.90;99.90
8527;DHT22;4301;48.362;8.478;2023-02-02T03:17:12;2.00;99.90
8527;DHT22;4301;48.362;8.478;2023-02-02T03:19:39;2.00;99.90
8527;DHT22;4301;48.362;8.478;2023-02-02T03:22:07;2.00;99.90
8527;DHT22;4301;48.362;8.478;2023-02-02T03:24:34;1.90;99.90
8527;DHT22;4301;48.362;8.478;2023-02-02T03:27:01;2.00;99.90
8527;DHT22;4301;48.362;8.478;2023-02-02T03:29:28;1.90;99.90
8527;DHT22;4301;48.362;8.478;2023-02-02T03:31:55;1.90;99.90
8527;DHT22;4301;48.362;8.478;2023-02-02T03:34:22;1.90;99.90
8527;DHT22;4301;48.362;8.478;2023-02-02T03:36:49;1.90;99.90
8527;DHT22;4301;48.362;8.478;2023-02-02T03:39:17;1.90;99.90
8527;DHT22;4301;48.362;8.478;2023-02-02T03:41:44;1.90;99.90
8527;DHT22;4301;48.362;8.478;2023-02-02T03:44:11;1.90;99.90
8527;DHT22;4301;48.362;8.478;2023-02-02T03:46:38;1.90;99.90
8527;DHT22;4301;48.362;8.478;2023-02-02T03:49:05;1.90;99.90
8527;DHT22;4301;48.362;8.478;2023-02-02T03:51:32;1.90;99.90
8527;DHT22;4301;48.362;8.478;2023-02-02T03:53:59;2.00;99.90
8527;DHT22;4301;48.362;8.478;2023-02-02T03:56:27;2.00;99.90
8527;DHT22;4301;48.362;8.478;2023-02-02T03:58:54;2.00;99.90
8527;DHT22;4301;48.362;8.478;2023-02-02T04:01:26;2.00;99.90
8527;DHT22;4301;48.362;8.478;2023-02-02T04:03:54;2.00;99.90
8527;DHT22;4301;48.362;8.478;2023-02-02T04:06:21;2.00;99.90
8527;DHT22;4301;48.362;8.478;2023-02-02T04:08:48;2.00;99.90
8527;DHT22;4301;48.362;8.478;2023-02-02T04:11:15;2.00;99.90
8527;DHT22;4301;48.362;8.478;2023-02-02T04:13:44;2.00;99.90
8527;DHT22;4301;48.362;8.478;2023-02-02T04:16:11;2.00;99.90
8527;DHT22;4301;48.362;8.478;2023-02-02T04:18:38;2.00;99.90
8527;DHT22;4301;48.362;8.478;2023-02-02T04:21:05;2.00;99.90
8527;DHT22;4301;48.362;8.478;2023-02-02T04:23:33;2.00;99.90
8527;DHT22;4301;48.362;8.478;2023-02-02T04:26:00;2.10;99.90
8527;DHT22;4301;48.362;8.478;2023-02-02T04:28:27;2.10;99.90
8527;DHT22;4301;48.362;8.478;2023-02-02T04:30:56;2.10;99.90
8527;DHT22;4301;48.362;8.478;2023-02-02T04:33:25;2.00;99.90
8527;DHT22;4301;48.362;8.478;2023-02-02T04:35:53;2.00;99.90
8527;DHT22;4301;48.362;8.478;2023-02-02T04:38:20;2.00;99.90
8527;DHT22;4301;48.362;8.478;2023-02-02T04:40:48;2.00;99.90
8527;DHT22;4301;48.362;8.478;2023-02-02T04:43:15;2.00;99.90
8527;DHT22;4301;48.362;8.478;2023-02-02T04:45:42;2.10;99.90
8527;DHT22;4301;48.362;8.478;2023-02-02T04:48:10;2.10;99.90
8527;DHT22;4301;48.362;8.478;2023-02-02T04:50:37;2.10;99.90
8527;DHT22;4301;48.362;8.478;2023-02-02T04:53:04;2.10;99.90
8527;DHT22;4301;48.362;8.478;2023-02-02T04:55:35;2.10;99.90
8527;DHT22;4301;48.362;8.478;2023-02-02T04:58:03;2.10;99.90
8527;DHT22;4301;48.362;8.478;2023-02-02T05:00:30;2.10;99.90
8527;DHT22;4301;48.362;8.478;2023-02-02T05:02:56;2.10;99.90
8527;DHT22;4301;48.362;8.478;2023-02-02T05:05:25;2.10;99.90
8527;DHT22;4301;48.362;8.478;2023-02-02T05:07:52;2.10;99.90
8527;DHT22;4301;48.362;8.478;2023-02-02T05:10:19;2.10;99.90
8527;DHT22;4301;48.362;8.478;2023-02-02T05:12:46;2.10;99.90
8527;DHT22;4301;48.362;8.478;2023-02-02T05:15:12;2.10;99.90
8527;DHT22;4301;48.362;8.478;2023-02-02T05:17:39;2.10;99.90
8527;DHT22;4301;48.362;8.478;2023-02-02T05:20:07;2.10;99.90
8527;DHT22;4301;48.362;8.478;2023-02-02T05:22:36;2.10;99.90
8527;DHT22;4301;48.362;8.478;2023-02-02T05:25:04;2.20;99.90
8527;DHT22;4301;48.362;8.478;2023-02-02T05:27:31;2.10;99.90
8527;DHT22;4301;48.362;8.478;2023-02-02T05:29:58;2.10;99.90
8527;DHT22;4301;48.362;8.478;2023-02-02T05:32:25;2.10;99.90
8527;DHT22;4301;48.362;8.478;2023-02-02T05:34:53;2.10;99.90
8527;DHT22;4301;48.362;8.478;2023-02-02T05:37:20;2.10;99.90
8527;DHT22;4301;48.362;8.478;2023-02-02T05:39:48;2.10;99.90
8527;DHT22;4301;48.362;8.478;2023-02-02T05:42:16;2.10;99.90
8527;DHT22;4301;48.362;8.478;2023-02-02T05:44:43;2.10;99.90
8527;DHT22;4301;48.362;8.478;2023-02-02T05:47:10;2.10;99.90
8527;DHT22;4301;48.362;8.478;2023-02-02T05:49:37;2.00;99.90
8527;DHT22;4301;48.362;8.478;2023-02-02T05:52:04;2.10;99.90
8527;DHT22;4301;48.362;8.478;2023-02-02T05:54:31;2.10;99.90
8527;DHT22;4301;48.362;8.478;2023-02-02T05:56:59;2.10;99.90
8527;DHT22;4301;48.362;8.478;2023-02-02T05:59:27;2.10;99.90
8527;DHT22;4301;48.362;8.478;2023-02-02T06:01:54;2.10;99.90
8527;DHT22;4301;48.362;8.478;2023-02-02T06:04:21;2.10;99.90
8527;DHT22;4301;48.362;8.478;2023-02-02T06:06:48;2.10;99.90
8527;DHT22;4301;48.362;8.478;2023-02-02T06:09:15;2.10;99.90
8527;DHT22;4301;48.362;8.478;2023-02-02T06:11:42;2.10;99.90
8527;DHT22;4301;48.362;8.478;2023-02-02T06:14:11;2.10;99.90
8527;DHT22;4301;48.362;8.478;2023-02-02T06:16:38;2.20;99.90
8527;DHT22;4301;48.362;8.478;2023-02-02T06:19:05;2.20;99.90
8527;DHT22;4301;48.362;8.478;2023-02-02T06:21:32;2.10;99.90
8527;DHT22;4301;48.362;8.478;2023-02-02T06:23:59;2.10;99.90
8527;DHT22;4301;48.362;8.478;2023-02-02T06:26:26;2.10;99.90
8527;DHT22;4301;48.362;8.478;2023-02-02T06:28:53;2.10;99.90
8527;DHT22;4301;48.362;8.478;2023-02-02T06:31:22;2.20;99.90
8527;DHT22;4301;48.362;8.478;2023-02-02T06:33:52;2.20;99.90
8527;DHT22;4301;48.362;8.478;2023-02-02T06:36:20;2.20;99.90
8527;DHT22;4301;48.362;8.478;2023-02-02T06:38:48;2.20;99.90
8527;DHT22;4301;48.362;8.478;2023-02-02T06:41:15;2.20;99.90
8527;DHT22;4301;48.362;8.478;2023-02-02T06:43:42;2.20;99.90
8527;DHT22;4301;48.362;8.478;2023-02-02T06:46:09;2.20;99.90
8527;DHT22;4301;48.362;8.478;2023-02-02T06:48:38;2.20;99.90
8527;DHT22;4301;48.362;8.478;2023-02-02T06:51:05;2.20;99.90
8527;DHT22;4301;48.362;8.478;2023-02-02T06:53:33;2.20;99.90
8527;DHT22;4301;48.362;8.478;2023-02-02T06:56:02;2.20;99.90
8527;DHT22;4301;48.362;8.478;2023-02-02T06:58:30;2.10;99.90
8527;DHT22;4301;48.362;8.478;2023-02-02T07:01:00;2.20;99.90
8527;DHT22;4301;48.362;8.478;2023-02-02T07:03:29;2.10;99.90
8527;DHT22;4301;48.362;8.478;2023-02-02T07:05:58;2.10;99.90
8527;DHT22;4301;48.362;8.478;2023-02-02T07:08:25;2.10;99.90
8527;DHT22;4301;48.362;8.478;2023-02-02T07:10:52;2.10;99.90
8527;DHT22;4301;48.362;8.478;2023-02-02T07:13:19;2.00;99.90
8527;DHT22;4301;48.362;8.478;2023-02-02T07:15:46;2.10;99.90
8527;DHT22;4301;48.362;8.478;2023-02-02T07:18:14;2.10;99.90
8527;DHT22;4301;48.362;8.478;2023-02-02T07:20:41;2.10;99.90
8527;DHT22;4301;48.362;8.478;2023-02-02T07:23:09;2.10;99.90
8527;DHT22;4301;48.362;8.478;2023-02-02T07:25:36;2.10;99.90
8527;DHT22;4301;48.362;8.478;2023-02-02T07:28:03;2.10;99.90
8527;DHT22;4301;48.362;8.478;2023-02-02T07:30:30;2.10;99.90
8527;DHT22;4301;48.362;8.478;2023-02-02T07:32:57;2.10;99.90
8527;DHT22;4301;48.362;8.478;2023-02-02T07:35:25;2.20;99.90
8527;DHT22;4301;48.362;8.478;2023-02-02T07:37:52;2.10;99.90
8527;DHT22;4301;48.362;8.478;2023-02-02T07:40:21;2.10;99.90
8527;DHT22;4301;48.362;8.478;2023-02-02T07:42:48;2.20;99.90
8527;DHT22;4301;48.362;8.478;2023-02-02T07:45:15;2.20;99.90
8527;DHT22;4301;48.362;8.478;2023-02-02T07:47:42;2.20;99.90
8527;DHT22;4301;48.362;8.478;2023-02-02T07:50:09;2.20;99.90
8527;DHT22;4301;48.362;8.478;2023-02-02T07:52:36;2.20;99.90
8527;DHT22;4301;48.362;8.478;2023-02-02T07:55:04;2.20;99.90
8527;DHT22;4301;48.362;8.478;2023-02-02T07:57:33;2.20;99.90
8527;DHT22;4301;48.362;8.478;2023-02-02T07:59:59;2.20;99.90
8527;DHT22;4301;48.362;8.478;2023-02-02T08:02:26;2.20;99.90
8527;DHT22;4301;48.362;8.478;2023-02-02T08:04:53;2.20;99.90
8527;DHT22;4301;48.362;8.478;2023-02-02T08:07:20;2.20;99.90
8527;DHT22;4301;48.362;8.478;2023-02-02T08:09:49;2.20;99.90
8527;DHT22;4301;48.362;8.478;2023-02-02T08:12:17;2.20;99.90
8527;DHT22;4301;48.362;8.478;2023-02-02T08:14:45;2.30;99.90
8527;DHT22;4301;48.362;8.478;2023-02-02T08:17:12;2.20;99.90
8527;DHT22;4301;48.362;8.478;2023-02-02T08:19:39;2.30;99.90
8527;DHT22;4301;48.362;8.478;2023-02-02T08:22:06;2.30;99.90
8527;DHT22;4301;48.362;8.478;2023-02-02T08:24:33;2.30;99.90
8527;DHT22;4301;48.362;8.478;2023-02-02T08:27:05;2.30;99.90
8527;DHT22;4301;48.362;8.478;2023-02-02T08:29:32;2.30;99.90
8527;DHT22;4301;48.362;8.478;2023-02-02T08:32:01;2.30;99.90
8527;DHT22;4301;48.362;8.478;2023-02-02T08:34:28;2.40;99.90
8527;DHT22;4301;48.362;8.478;2023-02-02T08:36:55;2.40;99.90
8527;DHT22;4301;48.362;8.478;2023-02-02T08:39:22;2.40;99.90
8527;DHT22;4301;48.362;8.478;2023-02-02T08:41:49;2.40;99.90
8527;DHT22;4301;48.362;8.478;2023-02-02T08:44:16;2.40;99.90
8527;DHT22;4301;48.362;8.478;2023-02-02T08:46:43;2.50;99.90
8527;DHT22;4301;48.362;8.478;2023-02-02T08:49:12;2.50;99.90
8527;DHT22;4301;48.362;8.478;2023-02-02T08:51:39;2.50;99.90
8527;DHT22;4301;48.362;8.478;2023-02-02T08:54:06;2.50;99.90
8527;DHT22;4301;48.362;8.478;2023-02-02T08:56:33;2.50;99.90
8527;DHT22;4301;48.362;8.478;2023-02-02T08:59:00;2.50;99.90
8527;DHT22;4301;48.362;8.478;2023-02-02T09:01:31;2.60;99.90
8527;DHT22;4301;48.362;8.478;2023-02-02T09:04:00;2.50;99.90
8527;DHT22;4301;48.362;8.478;2023-02-02T09:06:30;2.60;99.90
8527;DHT22;4301;48.362;8.478;2023-02-02T09:08:58;2.60;99.90
8527;DHT22;4301;48.362;8.478;2023-02-02T09:11:25;2.60;99.90
8527;DHT22;4301;48.362;8.478;2023-02-02T09:13:54;2.60;99.90
8527;DHT22;4301;48.362;8.478;2023-02-02T09:16:22;2.60;99.90
8527;DHT22;4301;48.362;8.478;2023-02-02T09:18:49;2.60;99.90
8527;DHT22;4301;48.362;8.478;2023-02-02T09:21:17;2.70;99.90
8527;DHT22;4301;48.362;8.478;2023-02-02T09:23:47;2.60;99.90
8527;DHT22;4301;48.362;8.478;2023-02-02T09:26:16;2.60;99.90
8527;DHT22;4301;48.362;8.478;2023-02-02T09:28:44;2.60;99.90
8527;DHT22;4301;48.362;8.478;2023-02-02T09:31:12;2.60;99.90
8527;DHT22;4301;48.362;8.478;2023-02-02T09:33:40;2.60;99.90
8527;DHT22;4301;48.362;8.478;2023-02-02T09:36:08;2.60;99.90
8527;DHT22;4301;48.362;8.478;2023-02-02T09:38:35;2.60;99.90
8527;DHT22;4301;48.362;8.478;2023-02-02T09:41:19;2.60;99.90
8527;DHT22;4301;48.362;8.478;2023-02-02T09:43:53;2.60;99.90
8527;DHT22;4301;48.362;8.478;2023-02-02T09:46:30;2.60;99.90
8527;DHT22;4301;48.362;8.478;2023-02-02T09:49:01;2.70;99.90
8527;DHT22;4301;48.362;8.478;2023-02-02T09:51:33;2.70;99.90
8527;DHT22;4301;48.362;8.478;2023-02-02T09:54:05;2.70;99.90
8527;DHT22;4301;48.362;8.478;2023-02-02T09:56:40;2.70;99.90
8527;DHT22;4301;48.362;8.478;2023-02-02T09:59:16;2.60;99.90
8527;DHT22;4301;48.362;8.478;2023-02-02T10:01:46;2.70;99.90
8527;DHT22;4301;48.362;8.478;2023-02-02T10:04:18;2.80;99.90
8527;DHT22;4301;48.362;8.478;2023-02-02T10:06:49;2.80;99.90
8527;DHT22;4301;48.362;8.478;2023-02-02T10:09:27;2.90;99.90
8527;DHT22;4301;48.362;8.478;2023-02-02T10:12:00;2.90;99.90
8527;DHT22;4301;48.362;8.478;2023-02-02T10:14:33;3.10;99.90
8527;DHT22;4301;48.362;8.478;2023-02-02T10:17:23;3.00;99.90
8527;DHT22;4301;48.362;8.478;2023-02-02T10:19:54;3.00;99.90
8527;DHT22;4301;48.362;8.478;2023-02-02T10:22:26;3.00;99.90
8527;DHT22;4301;48.362;8.478;2023-02-02T10:24:56;3.00;99.90
8527;DHT22;4301;48.362;8.478;2023-02-02T10:27:31;3.00;99.90
8527;DHT22;4301;48.362;8.478;2023-02-02T10:30:06;3.10;99.90
8527;DHT22;4301;48.362;8.478;2023-02-02T10:32:46;3.00;99.90
8527;DHT22;4301;48.362;8.478;2023-02-02T10:35:27;3.00;99.90
8527;DHT22;4301;48.362;8.478;2023-02-02T10:37:59;3.00;99.90
8527;DHT22;4301;48.362;8.478;2023-02-02T10:40:40;2.90;99.90
8527;DHT22;4301;48.362;8.478;2023-02-02T10:43:28;3.00;99.90
8527;DHT22;4301;48.362;8.478;2023-02-02T10:46:19;3.00;99.90
8527;DHT22;4301;48.362;8.478;2023-02-02T10:48:48;3.00;99.90
8527;DHT22;4301;48.362;8.478;2023-02-02T10:51:20;3.00;99.90
8527;DHT22;4301;48.362;8.478;2023-02-02T10:53:50;3.00;99.90
8527;DHT22;4301;48.362;8.478;2023-02-02T10:56:21;3.10;99.90
8527;DHT22;4301;48.362;8.478;2023-02-02T10:58:56;3.00;99.90
8527;DHT22;4301;48.362;8.478;2023-02-02T11:01:25;3.10;99.90
8527;DHT22;4301;48.362;8.478;2023-02-02T11:03:52;3.10;99.90
8527;DHT22;4301;48.362;8.478;2023-02-02T11:06:38;3.10;99.90
8527;DHT22;4301;48.362;8.478;2023-02-02T11:09:22;3.20;99.90
8527;DHT22;4301;48.362;8.478;2023-02-02T11:11:51;3.20;99.90
8527;DHT22;4301;48.362;8.478;2023-02-02T11:14:33;3.20;99.90
8527;DHT22;4301;48.362;8.478;2023-02-02T11:17:04;3.20;99.90
8527;DHT22;4301;48.362;8.478;2023-02-02T11:19:32;3.30;99.90
8527;DHT22;4301;48.362;8.478;2023-02-02T11:22:01;3.40;99.90
8527;DHT22;4301;48.362;8.478;2023-02-02T11:24:29;3.50;99.90
8527;DHT22;4301;48.362;8.478;2023-02-02T11:27:03;3.40;99.90
8527;DHT22;4301;48.362;8.478;2023-02-02T11:29:42;3.30;99.90
8527;DHT22;4301;48.362;8.478;2023-02-02T11:32:24;3.30;99.90
8527;DHT22;4301;48.362;8.478;2023-02-02T11:35:13;3.30;99.90
8527;DHT22;4301;48.362;8.478;2023-02-02T11:37:55;3.30;99.90
8527;DHT22;4301;48.362;8.478;2023-02-02T11:40:29;3.30;99.90
8527;DHT22;4301;48.362;8.478;2023-02-02T11:42:59;3.30;99.90
8527;DHT22;4301;48.362;8.478;2023-02-02T11:45:32;3.30;99.90
8527;DHT22;4301;48.362;8.478;2023-02-02T11:48:03;3.30;99.90
8527;DHT22;4301;48.362;8.478;2023-02-02T11:50:31;3.30;99.90
8527;DHT22;4301;48.362;8.478;2023-02-02T11:52:58;3.40;99.90
8527;DHT22;4301;48.362;8.478;2023-02-02T11:55:27;3.40;99.90
8527;DHT22;4301;48.362;8.478;2023-02-02T11:58:20;3.30;99.90
8527;DHT22;4301;48.362;8.478;2023-02-02T12:00:57;3.30;99.90
8527;DHT22;4301;48.362;8.478;2023-02-02T12:03:32;3.30;99.90
8527;DHT22;4301;48.362;8.478;2023-02-02T12:05:59;3.30;99.90
8527;DHT22;4301;48.362;8.478;2023-02-02T12:08:28;3.20;99.90
8527;DHT22;4301;48.362;8.478;2023-02-02T12:10:58;3.10;99.90
8527;DHT22;4301;48.362;8.478;2023-02-02T12:13:42;3.10;99.90
8527;DHT22;4301;48.362;8.478;2023-02-02T12:16:25;3.00;99.90
8527;DHT22;4301;48.362;8.478;2023-02-02T12:19:19;3.00;99.90
8527;DHT22;4301;48.362;8.478;2023-02-02T12:21:55;3.00;99.90
8527;DHT22;4301;48.362;8.478;2023-02-02T12:24:29;3.00;99.90
8527;DHT22;4301;48.362;8.478;2023-02-02T12:27:05;3.00;99.90
8527;DHT22;4301;48.362;8.478;2023-02-02T12:30:13;3.10;99.90
8527;DHT22;4301;48.362;8.478;2023-02-02T12:32:55;3.10;99.90
8527;DHT22;4301;48.362;8.478;2023-02-02T12:35:36;3.10;99.90
8527;DHT22;4301;48.362;8.478;2023-02-02T12:38:13;3.10;99.90
8527;DHT22;4301;48.362;8.478;2023-02-02T12:41:05;3.20;99.90
8527;DHT22;4301;48.362;8.478;2023-02-02T12:43:38;3.20;99.90
8527;DHT22;4301;48.362;8.478;2023-02-02T12:46:39;3.20;99.90
8527;DHT22;4301;48.362;8.478;2023-02-02T12:49:22;3.30;99.90
8527;DHT22;4301;48.362;8.478;2023-02-02T12:52:03;3.30;99.90
8527;DHT22;4301;48.362;8.478;2023-02-02T12:54:55;3.30;99.90
8527;DHT22;4301;48.362;8.478;2023-02-02T12:57:37;3.30;99.90
8527;DHT22;4301;48.362;8.478;2023-02-02T13:00:22;3.20;99.90
8527;DHT22;4301;48.362;8.478;2023-02-02T13:03:02;3.30;99.90
8527;DHT22;4301;48.362;8.478;2023-02-02T13:05:49;3.30;99.90
8527;DHT22;4301;48.362;8.478;2023-02-02T13:08:24;3.30;99.90
8527;DHT22;4301;48.362;8.478;2023-02-02T13:10:54;3.30;99.90
8527;DHT22;4301;48.362;8.478;2023-02-02T13:13:29;3.40;99.90
8527;DHT22;4301;48.362;8.478;2023-02-02T13:16:04;3.50;99.90
8527;DHT22;4301;48.362;8.478;2023-02-02T13:18:35;3.50;99.90
8527;DHT22;4301;48.362;8.478;2023-02-02T13:21:06;3.50;99.90
8527;DHT22;4301;48.362;8.478;2023-02-02T13:23:40;3.50;99.90
8527;DHT22;4301;48.362;8.478;2023-02-02T13:26:15;3.60;99.90
8527;DHT22;4301;48.362;8.478;2023-02-02T13:28:48;3.50;99.90
8527;DHT22;4301;48.362;8.478;2023-02-02T13:31:21;3.50;99.90
8527;DHT22;4301;48.362;8.478;2023-02-02T13:34:01;3.50;99.90
8527;DHT22;4301;48.362;8.478;2023-02-02T13:36:33;3.40;99.90
8527;DHT22;4301;48.362;8.478;2023-02-02T13:39:12;3.50;99.90
8527;DHT22;4301;48.362;8.478;2023-02-02T13:41:40;3.60;99.90
8527;DHT22;4301;48.362;8.478;2023-02-02T13:44:15;3.60;99.90
8527;DHT22;4301;48.362;8.478;2023-02-02T13:46:49;3.60;99.90
8527;DHT22;4301;48.362;8.478;2023-02-02T13:49:20;3.60;99.90
8527;DHT22;4301;48.362;8.478;2023-02-02T13:52:01;3.50;99.90
8527;DHT22;4301;48.362;8.478;2023-02-02T13:55:07;3.50;99.90
8527;DHT22;4301;48.362;8.478;2023-02-02T14:00:43;3.40;99.90
8527;DHT22;4301;48.362;8.478;2023-02-02T14:03:29;3.40;99.90
8527;DHT22;4301;48.362;8.478;2023-02-02T14:06:08;3.30;99.90
8527;DHT22;4301;48.362;8.478;2023-02-02T14:08:43;3.20;99.90
8527;DHT22;4301;48.362;8.478;2023-02-02T14:11:17;3.20;99.90
8527;DHT22;4301;48.362;8.478;2023-02-02T14:13:47;3.20;99.90
8527;DHT22;4301;48.362;8.478;2023-02-02T14:16:47;3.20;99.90
8527;DHT22;4301;48.362;8.478;2023-02-02T14:19:16;3.20;99.90
8527;DHT22;4301;48.362;8.478;2023-02-02T14:22:03;3.20;99.90
8527;DHT22;4301;48.362;8.478;2023-02-02T14:24:47;3.20;99.90
8527;DHT22;4301;48.362;8.478;2023-02-02T14:27:40;3.20;99.90
8527;DHT22;4301;48.362;8.478;2023-02-02T14:30:20;3.20;99.90
8527;DHT22;4301;48.362;8.478;2023-02-02T14:32:47;3.10;99.90
8527;DHT22;4301;48.362;8.478;2023-02-02T14:38:25;3.20;99.90
8527;DHT22;4301;48.362;8.478;2023-02-02T14:41:07;3.10;99.90
8527;DHT22;4301;48.362;8.478;2023-02-02T14:43:41;3.10;99.90
8527;DHT22;4301;48.362;8.478;2023-02-02T14:46:30;3.00;99.90
8527;DHT22;4301;48.362;8.478;2023-02-02T14:49:24;3.00;99.90
8527;DHT22;4301;48.362;8.478;2023-02-02T14:51:56;3.10;99.90
8527;DHT22;4301;48.362;8.478;2023-02-02T14:54:29;3.10;99.90
8527;DHT22;4301;48.362;8.478;2023-02-02T14:57:01;3.10;99.90
8527;DHT22;4301;48.362;8.478;2023-02-02T14:59:31;3.10;99.90
8527;DHT22;4301;48.362;8.478;2023-02-02T15:02:05;3.10;99.90
8527;DHT22;4301;48.362;8.478;2023-02-02T15:04:36;3.10;99.90
8527;DHT22;4301;48.362;8.478;2023-02-02T15:07:45;3.20;99.90
8527;DHT22;4301;48.362;8.478;2023-02-02T15:13:20;3.20;99.90
8527;DHT22;4301;48.362;8.478;2023-02-02T15:15:48;3.30;99.90
8527;DHT22;4301;48.362;8.478;2023-02-02T15:18:24;3.20;99.90
8527;DHT22;4301;48.362;8.478;2023-02-02T15:20:55;3.20;99.90
8527;DHT22;4301;48.362;8.478;2023-02-02T15:23:30;3.20;99.90
8527;DHT22;4301;48.362;8.478;2023-02-02T15:26:03;3.20;99.90
8527;DHT22;4301;48.362;8.478;2023-02-02T15:28:40;3.20;99.90
8527;DHT22;4301;48.362;8.478;2023-02-02T15:31:15;3.20;99.90
8527;DHT22;4301;48.362;8.478;2023-02-02T15:33:48;3.20;99.90
8527;DHT22;4301;48.362;8.478;2023-02-02T15:36:18;3.20;99.90
8527;DHT22;4301;48.362;8.478;2023-02-02T15:38:48;3.20;99.90
8527;DHT22;4301;48.362;8.478;2023-02-02T15:41:19;3.20;99.90
8527;DHT22;4301;48.362;8.478;2023-02-02T15:43:48;3.20;99.90
8527;DHT22;4301;48.362;8.478;2023-02-02T15:46:17;3.20;99.90
8527;DHT22;4301;48.362;8.478;2023-02-02T15:49:21;3.20;99.90
8527;DHT22;4301;48.362;8.478;2023-02-02T15:51:55;3.20;99.90
8527;DHT22;4301;48.362;8.478;2023-02-02T15:54:25;3.20;99.90
8527;DHT22;4301;48.362;8.478;2023-02-02T15:56:54;3.30;99.90
8527;DHT22;4301;48.362;8.478;2023-02-02T15:59:25;3.20;99.90
8527;DHT22;4301;48.362;8.478;2023-02-02T16:01:59;3.20;99.90
8527;DHT22;4301;48.362;8.478;2023-02-02T16:04:34;3.20;99.90
8527;DHT22;4301;48.362;8.478;2023-02-02T16:07:02;3.10;99.90
8527;DHT22;4301;48.362;8.478;2023-02-02T16:09:33;3.20;99.90
8527;DHT22;4301;48.362;8.478;2023-02-02T16:12:02;3.10;99.90
8527;DHT22;4301;48.362;8.478;2023-02-02T16:14:33;3.20;99.90
8527;DHT22;4301;48.362;8.478;2023-02-02T16:17:11;3.10;99.90
8527;DHT22;4301;48.362;8.478;2023-02-02T16:19:40;3.20;99.90
8527;DHT22;4301;48.362;8.478;2023-02-02T16:22:12;3.20;99.90
8527;DHT22;4301;48.362;8.478;2023-02-02T16:24:43;3.20;99.90
8527;DHT22;4301;48.362;8.478;2023-02-02T16:27:15;3.20;99.90
8527;DHT22;4301;48.362;8.478;2023-02-02T16:29:45;3.20;99.90
8527;DHT22;4301;48.362;8.478;2023-02-02T16:32:26;3.20;99.90
8527;DHT22;4301;48.362;8.478;2023-02-02T16:34:53;3.10;99.90
8527;DHT22;4301;48.362;8.478;2023-02-02T16:37:22;3.20;99.90
8527;DHT22;4301;48.362;8.478;2023-02-02T16:39:52;3.10;99.90
8527;DHT22;4301;48.362;8.478;2023-02-02T16:42:24;3.10;99.90
8527;DHT22;4301;48.362;8.478;2023-02-02T16:44:54;3.10;99.90
8527;DHT22;4301;48.362;8.478;2023-02-02T16:47:36;3.20;99.90
8527;DHT22;4301;48.362;8.478;2023-02-02T16:50:25;3.20;99.90
8527;DHT22;4301;48.362;8.478;2023-02-02T16:52:55;3.20;99.90
8527;DHT22;4301;48.362;8.478;2023-02-02T16:55:23;3.20;99.90
8527;DHT22;4301;48.362;8.478;2023-02-02T16:57:51;3.20;99.90
8527;DHT22;4301;48.362;8.478;2023-02-02T17:00:21;3.20;99.90